T Luke Savage — WDG2137 — position and weather

sailwx.info

Track history (hours):
 
Tides and Currents Weather Stations Pressure Air Temp Water Temp Dewpoint Dewpoint Depression Visibility Wind Speed Wind Dir Waves Ship Positions

T Luke Savage

Owner: Savage Inland Marine, Gibson, LA. More information available from US FCC via Universal Licensing System and Coast Guard Vessel Documentation Center.

Last reported at 2018-Jul-06 13:33 UTC. Time now 2018-Jul-21 18:45 UTC.
Position N 32°59' W 091°10'.
Warning: this ship's position is 15 days out of date.

Length 29 m.

Type: Towing. MMSI: 367512520.

Date/timePositionNaut miles runAvg speedWind from/ knotsBaromVisibWave heightAir tempDewpointWater temp
2018-Jul-06 13:33N 32°59' W 091°10'0 4.6
2018-Jul-06 13:30N 32°59' W 091°10'12 2.7
2018-Jul-06 09:13N 32°47' W 091°09'1 4.6
2018-Jul-06 08:59N 32°46' W 091°09'2 4.5
2018-Jul-06 08:30N 32°44' W 091°08'2 4.4
2018-Jul-06 07:57N 32°44' W 091°05'2 4.5
2018-Jul-06 07:30N 32°43' W 091°03'2 3.9
2018-Jul-06 06:59N 32°41' W 091°05'2 3.4
2018-Jul-06 06:30N 32°40' W 091°06'2 3.1
2018-Jul-06 06:00N 32°40' W 091°08'2 3.2
2018-Jul-06 05:29N 32°38' W 091°09'2 4.0
2018-Jul-06 05:00N 32°36' W 091°09'2 3.6
2018-Jul-06 04:30N 32°35' W 091°07'2 3.5
2018-Jul-06 04:00N 32°34' W 091°06'2 3.5
2018-Jul-06 03:30N 32°32' W 091°06'2 4.4
2018-Jul-06 03:00N 32°30' W 091°07'2 3.6
2018-Jul-06 02:30N 32°28' W 091°06'2 3.4
2018-Jul-06 02:00N 32°27' W 091°05'2 3.9
2018-Jul-06 01:30N 32°26' W 091°03'2 3.9
2018-Jul-06 01:00N 32°25' W 091°01'2 3.8
2018-Jul-06 00:30N 32°24' W 090°60'2 4.5
2018-Jul-06 00:00N 32°22' W 091°00'2 4.2
2018-Jul-05 23:30N 32°21' W 090°58'2 4.7
2018-Jul-05 23:00N 32°21' W 090°55'1 3.0
2018-Jul-05 22:30N 32°19' W 090°54'2 4.3
2018-Jul-05 22:00N 32°18' W 090°56'2 4.3
2018-Jul-05 21:30N 32°16' W 090°58'2 4.7
2018-Jul-05 21:00N 32°14' W 090°59'2 4.8
2018-Jul-05 20:30N 32°12' W 090°59'2 4.3
2018-Jul-05 20:00N 32°10' W 091°00'2 4.3
2018-Jul-05 19:30N 32°08' W 091°01'2 3.6
2018-Jul-05 19:00N 32°07' W 091°03'2 3.8
2018-Jul-05 18:27N 32°08' W 091°05'2 3.7
2018-Jul-05 18:00N 32°07' W 091°06'4 2.7
2018-Jul-05 16:30N 32°04' W 091°04'2 4.3
2018-Jul-05 16:00N 32°01' W 091°04'6 4.6
2018-Jul-05 14:40N 31°59' W 091°11'9 4.2
2018-Jul-05 12:35N 31°51' W 091°16'  
2018-Jul-01 23:18N 29°51' W 091°55'2 5.3
2018-Jul-01 22:53N 29°50' W 091°57'2 5.2
2018-Jul-01 22:29N 29°50' W 091°60'3 5.5
2018-Jul-01 22:00N 29°49' W 092°02'3 5.3
2018-Jul-01 21:30N 29°48' W 092°05'3 5.3
2018-Jul-01 21:00N 29°47' W 092°08'2 4.9
2018-Jul-01 20:30N 29°47' W 092°11'2 3.1
2018-Jul-01 20:00N 29°47' W 092°13'1 2.0
2018-Jul-01 19:30N 29°48' W 092°14'0 0.0
2018-Jul-01 19:00N 29°48' W 092°14'0 0.0
2018-Jul-01 18:30N 29°48' W 092°14'0 0.0
2018-Jul-01 18:00N 29°48' W 092°14'0 0.0
2018-Jul-01 17:30N 29°48' W 092°14'0 0.0
2018-Jul-01 17:00N 29°48' W 092°14'1 1.7
2018-Jul-01 16:30N 29°48' W 092°15'1 1.5
2018-Jul-01 16:00N 29°48' W 092°15'1 1.2
2018-Jul-01 15:30N 29°48' W 092°16'1 1.0
2018-Jul-01 15:00N 29°49' W 092°17'1 2.2
2018-Jul-01 14:30N 29°49' W 092°18'2 4.2
2018-Jul-01 14:00N 29°50' W 092°20'2 4.0
2018-Jul-01 13:30N 29°51' W 092°22'28 4.5
2018-Jul-01 07:16N 29°57' W 092°53'1 2.3
2018-Jul-01 06:55N 29°56' W 092°54'1 1.9
2018-Jul-01 06:30N 29°56' W 092°55'2 4.5
2018-Jul-01 06:00N 29°56' W 092°58'1 2.3
2018-Jul-01 05:30N 29°56' W 092°59'2 4.3
2018-Jul-01 05:00N 29°56' W 093°01'1 2.5
2018-Jul-01 04:30N 29°56' W 093°03'2 4.6
2018-Jul-01 04:00N 29°56' W 093°05'3 5.2
2018-Jul-01 03:30N 29°56' W 093°08'2 4.7
2018-Jul-01 03:00N 29°57' W 093°11'2 4.6
2018-Jul-01 02:30N 29°59' W 093°12'2 4.5
2018-Jul-01 02:00N 30°01' W 093°14'1 1.9
2018-Jul-01 01:30N 30°02' W 093°15'1 2.0
2018-Jul-01 01:00N 30°02' W 093°16'2 4.7
2018-Jul-01 00:30N 30°05' W 093°17'1 2.6
2018-Jul-01 00:00N 30°05' W 093°18'1 1.9
2018-Jun-30 23:30N 30°06' W 093°18'0 0.8
2018-Jun-30 23:00N 30°06' W 093°19'0 0.0
2018-Jun-30 22:30N 30°06' W 093°19'0 0.0
2018-Jun-30 22:00N 30°06' W 093°19'2 4.2
2018-Jun-30 21:30N 30°05' W 093°20'2 4.0
2018-Jun-30 21:00N 30°04' W 093°22'1 1.4
2018-Jun-30 20:30N 30°04' W 093°23'0 0.0
2018-Jun-30 20:00N 30°04' W 093°23'0 0.0
2018-Jun-30 19:30N 30°04' W 093°23'0 0.0
2018-Jun-30 19:00N 30°04' W 093°23'0 0.0
2018-Jun-30 18:30N 30°04' W 093°23'0 0.0
2018-Jun-30 18:00N 30°04' W 093°23'0 0.0
2018-Jun-30 17:30N 30°04' W 093°23'0 0.0
2018-Jun-30 17:00N 30°04' W 093°23'0 0.8
2018-Jun-30 16:30N 30°04' W 093°24'0 0.0
2018-Jun-30 16:00N 30°04' W 093°24'0 0.0
2018-Jun-30 15:30N 30°04' W 093°24'0 0.0
2018-Jun-30 15:00N 30°04' W 093°24'0 0.0
2018-Jun-30 14:30N 30°04' W 093°24'1 2.6
2018-Jun-30 14:00N 30°04' W 093°25'0 0.0
2018-Jun-30 13:30N 30°04' W 093°25'0 0.0
2018-Jun-30 13:00N 30°04' W 093°25'0 0.0
2018-Jun-30 12:30N 30°04' W 093°25'0 0.0
2018-Jun-30 12:00N 30°04' W 093°25'0 0.0
2018-Jun-30 11:30N 30°04' W 093°25'0 0.0
2018-Jun-30 11:00N 30°04' W 093°25'0 0.0
2018-Jun-30 10:30N 30°04' W 093°25'0 0.0
2018-Jun-30 10:00N 30°04' W 093°25'0 0.0
2018-Jun-30 09:30N 30°04' W 093°25'0 0.0
2018-Jun-30 09:00N 30°04' W 093°25'0 0.0
2018-Jun-30 08:30N 30°04' W 093°25'0 0.0
2018-Jun-30 08:00N 30°04' W 093°25'0 0.0
2018-Jun-30 07:30N 30°04' W 093°25'0 0.0
2018-Jun-30 07:00N 30°04' W 093°25'0 0.0
2018-Jun-30 06:30N 30°04' W 093°25'0 0.0
2018-Jun-30 06:00N 30°04' W 093°25'0 0.0
2018-Jun-30 05:30N 30°04' W 093°25'0 0.0
2018-Jun-30 05:00N 30°04' W 093°25'0 0.0
2018-Jun-30 04:30N 30°04' W 093°25'0 0.0
2018-Jun-30 04:00N 30°04' W 093°25'0 0.1
2018-Jun-30 03:30N 30°04' W 093°25'2 3.7
2018-Jun-30 03:00N 30°04' W 093°27'1 1.0
2018-Jun-30 02:30N 30°04' W 093°28'0 0.0
2018-Jun-30 02:00N 30°04' W 093°28'0 0.1
2018-Jun-30 01:30N 30°04' W 093°28'0 0.0
2018-Jun-30 01:00N 30°04' W 093°28'0 0.0
2018-Jun-30 00:30N 30°04' W 093°28'0 0.0
2018-Jun-30 00:00N 30°04' W 093°28'0 0.0
2018-Jun-29 23:30N 30°04' W 093°28'0 0.0
2018-Jun-29 23:00N 30°04' W 093°28'0 0.0
2018-Jun-29 22:29N 30°04' W 093°28'0 0.1
2018-Jun-29 22:00N 30°04' W 093°28'0 0.2
2018-Jun-29 21:30N 30°04' W 093°28'0 0.0
2018-Jun-29 21:00N 30°04' W 093°28'0 0.0
2018-Jun-29 20:30N 30°04' W 093°28'0 0.0
2018-Jun-29 20:00N 30°04' W 093°28'0 0.0
2018-Jun-29 19:30N 30°04' W 093°28'0 0.0
2018-Jun-29 19:00N 30°04' W 093°28'0 0.0
2018-Jun-29 18:30N 30°04' W 093°28'0 0.0
2018-Jun-29 18:00N 30°04' W 093°28'0 0.0
2018-Jun-29 17:30N 30°04' W 093°28'0 0.0
2018-Jun-29 17:00N 30°04' W 093°28'0 0.0
2018-Jun-29 16:30N 30°04' W 093°28'0 0.0
2018-Jun-29 16:00N 30°04' W 093°28'0 0.1
2018-Jun-29 15:30N 30°04' W 093°28'0 0.1
2018-Jun-29 15:00N 30°04' W 093°28'0 0.0
2018-Jun-29 14:28N 30°04' W 093°28'0 0.0
2018-Jun-29 14:00N 30°04' W 093°28'0 0.0
2018-Jun-29 13:30N 30°04' W 093°28'0 0.0
2018-Jun-29 13:00N 30°04' W 093°28'0 0.0
2018-Jun-29 12:30N 30°04' W 093°28'0 0.0
2018-Jun-29 12:00N 30°04' W 093°28'0 0.0
2018-Jun-29 11:30N 30°04' W 093°28'0 0.0
2018-Jun-29 11:00N 30°04' W 093°28'0 0.0
2018-Jun-29 10:30N 30°04' W 093°28'0 0.0
2018-Jun-29 10:00N 30°04' W 093°28'0 0.0
2018-Jun-29 09:30N 30°04' W 093°28'0 0.0
2018-Jun-29 09:00N 30°04' W 093°28'0 0.0
2018-Jun-29 08:30N 30°04' W 093°28'0 0.0
2018-Jun-29 08:00N 30°04' W 093°28'0 0.0
2018-Jun-29 07:30N 30°04' W 093°28'1 2.8
2018-Jun-29 07:00N 30°04' W 093°29'3 6.0
2018-Jun-29 06:30N 30°04' W 093°33'3 5.9
2018-Jun-29 06:00N 30°04' W 093°36'3 5.4
2018-Jun-29 05:30N 30°04' W 093°39'3 5.5
2018-Jun-29 05:00N 30°03' W 093°43'3 6.2
2018-Jun-29 04:30N 30°01' W 093°45'3 6.3
2018-Jun-29 04:00N 29°59' W 093°48'3 6.6
2018-Jun-29 03:30N 29°58' W 093°51'3 6.3
2018-Jun-29 03:00N 29°55' W 093°53'3 5.9
2018-Jun-29 02:30N 29°53' W 093°55'3 6.7
2018-Jun-29 02:00N 29°50' W 093°57'3 5.8
2018-Jun-29 01:30N 29°48' W 094°00'3 6.6
2018-Jun-29 01:00N 29°46' W 094°03'3 6.5
2018-Jun-29 00:30N 29°44' W 094°06'3 6.0
2018-Jun-29 00:00N 29°42' W 094°08'3 6.4
2018-Jun-28 23:30N 29°41' W 094°12'2 3.7
2018-Jun-28 23:00N 29°40' W 094°14'3 6.1
2018-Jun-28 22:30N 29°39' W 094°17'3 6.3
2018-Jun-28 22:00N 29°37' W 094°20'3 6.0
2018-Jun-28 21:30N 29°36' W 094°23'2 2.4
2018-Jun-28 20:45N 29°35' W 094°25'1 5.1
2018-Jun-28 20:30N 29°34' W 094°26'6 5.8
2018-Jun-28 19:31N 29°31' W 094°31'0 6.1
2018-Jun-28 19:30N 29°31' W 094°32'13 6.0
2018-Jun-28 17:24N 29°25' W 094°44'3 6.2
2018-Jun-28 16:59N 29°23' W 094°47'9 5.9
2018-Jun-28 15:29N 29°30' W 094°52'3 7.2
2018-Jun-28 15:00N 29°33' W 094°54'4 7.4
2018-Jun-28 14:30N 29°36' W 094°57'4 7.4
2018-Jun-28 14:00N 29°39' W 094°58'3 7.0
2018-Jun-28 13:30N 29°42' W 095°01'3 6.3
2018-Jun-28 13:00N 29°44' W 095°04'3 0.5
2018-Jun-28 07:31N 29°47' W 095°05'0 0.0
2018-Jun-28 07:11N 29°47' W 095°05'0 0.0
2018-Jun-28 05:39N 29°47' W 095°05'0 0.0
2018-Jun-28 05:29N 29°47' W 095°05'0 0.0
2018-Jun-28 04:56N 29°47' W 095°05'0 0.0
2018-Jun-28 04:24N 29°47' W 095°05'0 0.0
2018-Jun-28 03:58N 29°47' W 095°05'0 0.0
2018-Jun-28 03:29N 29°47' W 095°05'0 0.0
2018-Jun-28 03:00N 29°47' W 095°05'0 0.0
2018-Jun-28 02:25N 29°47' W 095°05'0 0.0
2018-Jun-28 01:58N 29°47' W 095°05'0 0.0
2018-Jun-28 01:28N 29°47' W 095°05'0 0.1
2018-Jun-28 00:54N 29°47' W 095°05'1 0.1
2018-Jun-27 14:12N 29°47' W 095°05'0 0.0
2018-Jun-27 14:00N 29°47' W 095°05'0 0.0
2018-Jun-27 13:20N 29°47' W 095°05'0 0.0
2018-Jun-27 13:00N 29°47' W 095°05'0 0.0
2018-Jun-27 05:55N 29°47' W 095°05'0 0.0
2018-Jun-27 05:26N 29°47' W 095°05'0 0.0
2018-Jun-27 04:55N 29°47' W 095°05'0 0.0
2018-Jun-27 04:29N 29°47' W 095°05'0 0.0
2018-Jun-27 03:59N 29°47' W 095°05'0 0.1
2018-Jun-27 02:44N 29°47' W 095°05'0 0.0
2018-Jun-27 02:30N 29°47' W 095°05'0 0.0
2018-Jun-27 02:00N 29°47' W 095°05'1 2.2
2018-Jun-27 01:20N 29°46' W 095°05'0 0.2
2018-Jun-27 00:43N 29°46' W 095°05'  
Track history (hours):
 
Tides and Currents Weather Stations Pressure Air Temp Water Temp Dewpoint Dewpoint Depression Visibility Wind Speed Wind Dir Waves Ship Positions

T Luke Savage

Owner: Savage Inland Marine, Gibson, LA. More information available from US FCC via Universal Licensing System and Coast Guard Vessel Documentation Center.

Last reported at 2018-Jul-06 13:33 UTC. Time now 2018-Jul-21 18:45 UTC.
Position N 32°59' W 091°10'.
Warning: this ship's position is 15 days out of date.

Length 29 m.

Type: Towing. MMSI: 367512520.

Date/timePositionNaut miles runAvg speedWind from/ knotsBaromVisibWave heightAir tempDewpointWater temp
2018-Jul-06 13:33N 32°59' W 091°10'0 4.6
2018-Jul-06 13:30N 32°59' W 091°10'12 2.7
2018-Jul-06 09:13N 32°47' W 091°09'1 4.6
2018-Jul-06 08:59N 32°46' W 091°09'2 4.5
2018-Jul-06 08:30N 32°44' W 091°08'2 4.4
2018-Jul-06 07:57N 32°44' W 091°05'2 4.5
2018-Jul-06 07:30N 32°43' W 091°03'2 3.9
2018-Jul-06 06:59N 32°41' W 091°05'2 3.4
2018-Jul-06 06:30N 32°40' W 091°06'2 3.1
2018-Jul-06 06:00N 32°40' W 091°08'2 3.2
2018-Jul-06 05:29N 32°38' W 091°09'2 4.0
2018-Jul-06 05:00N 32°36' W 091°09'2 3.6
2018-Jul-06 04:30N 32°35' W 091°07'2 3.5
2018-Jul-06 04:00N 32°34' W 091°06'2 3.5
2018-Jul-06 03:30N 32°32' W 091°06'2 4.4
2018-Jul-06 03:00N 32°30' W 091°07'2 3.6
2018-Jul-06 02:30N 32°28' W 091°06'2 3.4
2018-Jul-06 02:00N 32°27' W 091°05'2 3.9
2018-Jul-06 01:30N 32°26' W 091°03'2 3.9
2018-Jul-06 01:00N 32°25' W 091°01'2 3.8
2018-Jul-06 00:30N 32°24' W 090°60'2 4.5
2018-Jul-06 00:00N 32°22' W 091°00'2 4.2
2018-Jul-05 23:30N 32°21' W 090°58'2 4.7
2018-Jul-05 23:00N 32°21' W 090°55'1 3.0
2018-Jul-05 22:30N 32°19' W 090°54'2 4.3
2018-Jul-05 22:00N 32°18' W 090°56'2 4.3
2018-Jul-05 21:30N 32°16' W 090°58'2 4.7
2018-Jul-05 21:00N 32°14' W 090°59'2 4.8
2018-Jul-05 20:30N 32°12' W 090°59'2 4.3
2018-Jul-05 20:00N 32°10' W 091°00'2 4.3
2018-Jul-05 19:30N 32°08' W 091°01'2 3.6
2018-Jul-05 19:00N 32°07' W 091°03'2 3.8
2018-Jul-05 18:27N 32°08' W 091°05'2 3.7
2018-Jul-05 18:00N 32°07' W 091°06'4 2.7
2018-Jul-05 16:30N 32°04' W 091°04'2 4.3
2018-Jul-05 16:00N 32°01' W 091°04'6 4.6
2018-Jul-05 14:40N 31°59' W 091°11'9 4.2
2018-Jul-05 12:35N 31°51' W 091°16'  
2018-Jul-01 23:18N 29°51' W 091°55'2 5.3
2018-Jul-01 22:53N 29°50' W 091°57'2 5.2
2018-Jul-01 22:29N 29°50' W 091°60'3 5.5
2018-Jul-01 22:00N 29°49' W 092°02'3 5.3
2018-Jul-01 21:30N 29°48' W 092°05'3 5.3
2018-Jul-01 21:00N 29°47' W 092°08'2 4.9
2018-Jul-01 20:30N 29°47' W 092°11'2 3.1
2018-Jul-01 20:00N 29°47' W 092°13'1 2.0
2018-Jul-01 19:30N 29°48' W 092°14'0 0.0
2018-Jul-01 19:00N 29°48' W 092°14'0 0.0
2018-Jul-01 18:30N 29°48' W 092°14'0 0.0
2018-Jul-01 18:00N 29°48' W 092°14'0 0.0
2018-Jul-01 17:30N 29°48' W 092°14'0 0.0
2018-Jul-01 17:00N 29°48' W 092°14'1 1.7
2018-Jul-01 16:30N 29°48' W 092°15'1 1.5
2018-Jul-01 16:00N 29°48' W 092°15'1 1.2
2018-Jul-01 15:30N 29°48' W 092°16'1 1.0
2018-Jul-01 15:00N 29°49' W 092°17'1 2.2
2018-Jul-01 14:30N 29°49' W 092°18'2 4.2
2018-Jul-01 14:00N 29°50' W 092°20'2 4.0
2018-Jul-01 13:30N 29°51' W 092°22'28 4.5
2018-Jul-01 07:16N 29°57' W 092°53'1 2.3
2018-Jul-01 06:55N 29°56' W 092°54'1 1.9
2018-Jul-01 06:30N 29°56' W 092°55'2 4.5
2018-Jul-01 06:00N 29°56' W 092°58'1 2.3
2018-Jul-01 05:30N 29°56' W 092°59'2 4.3
2018-Jul-01 05:00N 29°56' W 093°01'1 2.5
2018-Jul-01 04:30N 29°56' W 093°03'2 4.6
2018-Jul-01 04:00N 29°56' W 093°05'3 5.2
2018-Jul-01 03:30N 29°56' W 093°08'2 4.7
2018-Jul-01 03:00N 29°57' W 093°11'2 4.6
2018-Jul-01 02:30N 29°59' W 093°12'2 4.5
2018-Jul-01 02:00N 30°01' W 093°14'1 1.9
2018-Jul-01 01:30N 30°02' W 093°15'1 2.0
2018-Jul-01 01:00N 30°02' W 093°16'2 4.7
2018-Jul-01 00:30N 30°05' W 093°17'1 2.6
2018-Jul-01 00:00N 30°05' W 093°18'1 1.9
2018-Jun-30 23:30N 30°06' W 093°18'0 0.8
2018-Jun-30 23:00N 30°06' W 093°19'0 0.0
2018-Jun-30 22:30N 30°06' W 093°19'0 0.0
2018-Jun-30 22:00N 30°06' W 093°19'2 4.2
2018-Jun-30 21:30N 30°05' W 093°20'2 4.0
2018-Jun-30 21:00N 30°04' W 093°22'1 1.4
2018-Jun-30 20:30N 30°04' W 093°23'0 0.0
2018-Jun-30 20:00N 30°04' W 093°23'0 0.0
2018-Jun-30 19:30N 30°04' W 093°23'0 0.0
2018-Jun-30 19:00N 30°04' W 093°23'0 0.0
2018-Jun-30 18:30N 30°04' W 093°23'0 0.0
2018-Jun-30 18:00N 30°04' W 093°23'0 0.0
2018-Jun-30 17:30N 30°04' W 093°23'0 0.0
2018-Jun-30 17:00N 30°04' W 093°23'0 0.8
2018-Jun-30 16:30N 30°04' W 093°24'0 0.0
2018-Jun-30 16:00N 30°04' W 093°24'0 0.0
2018-Jun-30 15:30N 30°04' W 093°24'0 0.0
2018-Jun-30 15:00N 30°04' W 093°24'0 0.0
2018-Jun-30 14:30N 30°04' W 093°24'1 2.6
2018-Jun-30 14:00N 30°04' W 093°25'0 0.0
2018-Jun-30 13:30N 30°04' W 093°25'0 0.0
2018-Jun-30 13:00N 30°04' W 093°25'0 0.0
2018-Jun-30 12:30N 30°04' W 093°25'0 0.0
2018-Jun-30 12:00N 30°04' W 093°25'0 0.0
2018-Jun-30 11:30N 30°04' W 093°25'0 0.0
2018-Jun-30 11:00N 30°04' W 093°25'0 0.0
2018-Jun-30 10:30N 30°04' W 093°25'0 0.0
2018-Jun-30 10:00N 30°04' W 093°25'0 0.0
2018-Jun-30 09:30N 30°04' W 093°25'0 0.0
2018-Jun-30 09:00N 30°04' W 093°25'0 0.0
2018-Jun-30 08:30N 30°04' W 093°25'0 0.0
2018-Jun-30 08:00N 30°04' W 093°25'0 0.0
2018-Jun-30 07:30N 30°04' W 093°25'0 0.0
2018-Jun-30 07:00N 30°04' W 093°25'0 0.0
2018-Jun-30 06:30N 30°04' W 093°25'0 0.0
2018-Jun-30 06:00N 30°04' W 093°25'0 0.0
2018-Jun-30 05:30N 30°04' W 093°25'0 0.0
2018-Jun-30 05:00N 30°04' W 093°25'0 0.0
2018-Jun-30 04:30N 30°04' W 093°25'0 0.0
2018-Jun-30 04:00N 30°04' W 093°25'0 0.1
2018-Jun-30 03:30N 30°04' W 093°25'2 3.7
2018-Jun-30 03:00N 30°04' W 093°27'1 1.0
2018-Jun-30 02:30N 30°04' W 093°28'0 0.0
2018-Jun-30 02:00N 30°04' W 093°28'0 0.1
2018-Jun-30 01:30N 30°04' W 093°28'0 0.0
2018-Jun-30 01:00N 30°04' W 093°28'0 0.0
2018-Jun-30 00:30N 30°04' W 093°28'0 0.0
2018-Jun-30 00:00N 30°04' W 093°28'0 0.0
2018-Jun-29 23:30N 30°04' W 093°28'0 0.0
2018-Jun-29 23:00N 30°04' W 093°28'0 0.0
2018-Jun-29 22:29N 30°04' W 093°28'0 0.1
2018-Jun-29 22:00N 30°04' W 093°28'0 0.2
2018-Jun-29 21:30N 30°04' W 093°28'0 0.0
2018-Jun-29 21:00N 30°04' W 093°28'0 0.0
2018-Jun-29 20:30N 30°04' W 093°28'0 0.0
2018-Jun-29 20:00N 30°04' W 093°28'0 0.0
2018-Jun-29 19:30N 30°04' W 093°28'0 0.0
2018-Jun-29 19:00N 30°04' W 093°28'0 0.0
2018-Jun-29 18:30N 30°04' W 093°28'0 0.0
2018-Jun-29 18:00N 30°04' W 093°28'0 0.0
2018-Jun-29 17:30N 30°04' W 093°28'0 0.0
2018-Jun-29 17:00N 30°04' W 093°28'0 0.0
2018-Jun-29 16:30N 30°04' W 093°28'0 0.0
2018-Jun-29 16:00N 30°04' W 093°28'0 0.1
2018-Jun-29 15:30N 30°04' W 093°28'0 0.1
2018-Jun-29 15:00N 30°04' W 093°28'0 0.0
2018-Jun-29 14:28N 30°04' W 093°28'0 0.0
2018-Jun-29 14:00N 30°04' W 093°28'0 0.0
2018-Jun-29 13:30N 30°04' W 093°28'0 0.0
2018-Jun-29 13:00N 30°04' W 093°28'0 0.0
2018-Jun-29 12:30N 30°04' W 093°28'0 0.0
2018-Jun-29 12:00N 30°04' W 093°28'0 0.0
2018-Jun-29 11:30N 30°04' W 093°28'0 0.0
2018-Jun-29 11:00N 30°04' W 093°28'0 0.0
2018-Jun-29 10:30N 30°04' W 093°28'0 0.0
2018-Jun-29 10:00N 30°04' W 093°28'0 0.0
2018-Jun-29 09:30N 30°04' W 093°28'0 0.0
2018-Jun-29 09:00N 30°04' W 093°28'0 0.0
2018-Jun-29 08:30N 30°04' W 093°28'0 0.0
2018-Jun-29 08:00N 30°04' W 093°28'0 0.0
2018-Jun-29 07:30N 30°04' W 093°28'1 2.8
2018-Jun-29 07:00N 30°04' W 093°29'3 6.0
2018-Jun-29 06:30N 30°04' W 093°33'3 5.9
2018-Jun-29 06:00N 30°04' W 093°36'3 5.4
2018-Jun-29 05:30N 30°04' W 093°39'3 5.5
2018-Jun-29 05:00N 30°03' W 093°43'3 6.2
2018-Jun-29 04:30N 30°01' W 093°45'3 6.3
2018-Jun-29 04:00N 29°59' W 093°48'3 6.6
2018-Jun-29 03:30N 29°58' W 093°51'3 6.3
2018-Jun-29 03:00N 29°55' W 093°53'3 5.9
2018-Jun-29 02:30N 29°53' W 093°55'3 6.7
2018-Jun-29 02:00N 29°50' W 093°57'3 5.8
2018-Jun-29 01:30N 29°48' W 094°00'3 6.6
2018-Jun-29 01:00N 29°46' W 094°03'3 6.5
2018-Jun-29 00:30N 29°44' W 094°06'3 6.0
2018-Jun-29 00:00N 29°42' W 094°08'3 6.4
2018-Jun-28 23:30N 29°41' W 094°12'2 3.7
2018-Jun-28 23:00N 29°40' W 094°14'3 6.1
2018-Jun-28 22:30N 29°39' W 094°17'3 6.3
2018-Jun-28 22:00N 29°37' W 094°20'3 6.0
2018-Jun-28 21:30N 29°36' W 094°23'2 2.4
2018-Jun-28 20:45N 29°35' W 094°25'1 5.1
2018-Jun-28 20:30N 29°34' W 094°26'6 5.8
2018-Jun-28 19:31N 29°31' W 094°31'0 6.1
2018-Jun-28 19:30N 29°31' W 094°32'13 6.0
2018-Jun-28 17:24N 29°25' W 094°44'3 6.2
2018-Jun-28 16:59N 29°23' W 094°47'9 5.9
2018-Jun-28 15:29N 29°30' W 094°52'3 7.2
2018-Jun-28 15:00N 29°33' W 094°54'4 7.4
2018-Jun-28 14:30N 29°36' W 094°57'4 7.4
2018-Jun-28 14:00N 29°39' W 094°58'3 7.0
2018-Jun-28 13:30N 29°42' W 095°01'3 6.3
2018-Jun-28 13:00N 29°44' W 095°04'3 0.5
2018-Jun-28 07:31N 29°47' W 095°05'0 0.0
2018-Jun-28 07:11N 29°47' W 095°05'0 0.0
2018-Jun-28 05:39N 29°47' W 095°05'0 0.0
2018-Jun-28 05:29N 29°47' W 095°05'0 0.0
2018-Jun-28 04:56N 29°47' W 095°05'0 0.0
2018-Jun-28 04:24N 29°47' W 095°05'0 0.0
2018-Jun-28 03:58N 29°47' W 095°05'0 0.0
2018-Jun-28 03:29N 29°47' W 095°05'0 0.0
2018-Jun-28 03:00N 29°47' W 095°05'0 0.0
2018-Jun-28 02:25N 29°47' W 095°05'0 0.0
2018-Jun-28 01:58N 29°47' W 095°05'0 0.0
2018-Jun-28 01:28N 29°47' W 095°05'0 0.1
2018-Jun-28 00:54N 29°47' W 095°05'1 0.1
2018-Jun-27 14:12N 29°47' W 095°05'0 0.0
2018-Jun-27 14:00N 29°47' W 095°05'0 0.0
2018-Jun-27 13:20N 29°47' W 095°05'0 0.0
2018-Jun-27 13:00N 29°47' W 095°05'0 0.0
2018-Jun-27 05:55N 29°47' W 095°05'0 0.0
2018-Jun-27 05:26N 29°47' W 095°05'0 0.0
2018-Jun-27 04:55N 29°47' W 095°05'0 0.0
2018-Jun-27 04:29N 29°47' W 095°05'0 0.0
2018-Jun-27 03:59N 29°47' W 095°05'0 0.1
2018-Jun-27 02:44N 29°47' W 095°05'0 0.0
2018-Jun-27 02:30N 29°47' W 095°05'0 0.0
2018-Jun-27 02:00N 29°47' W 095°05'1 2.2
2018-Jun-27 01:20N 29°46' W 095°05'0 0.2
2018-Jun-27 00:43N 29°46' W 095°05'  

Dump ship's entire track history